sensor_id;sensor_type;location;lat;lon;timestamp;temperature;humidity
51884;DHT22;37915;53.254;6.598;2022-08-11T00:02:13;17.40;99.90
51884;DHT22;37915;53.254;6.598;2022-08-11T00:04:39;17.40;99.90
51884;DHT22;37915;53.254;6.598;2022-08-11T00:07:06;17.40;99.90
51884;DHT22;37915;53.254;6.598;2022-08-11T00:09:34;17.40;99.90
51884;DHT22;37915;53.254;6.598;2022-08-11T00:12:00;17.30;99.90
51884;DHT22;37915;53.254;6.598;2022-08-11T00:14:27;17.30;99.90
51884;DHT22;37915;53.254;6.598;2022-08-11T00:19:20;17.20;99.90
51884;DHT22;37915;53.254;6.598;2022-08-11T00:21:46;17.20;99.90
51884;DHT22;37915;53.254;6.598;2022-08-11T00:24:12;17.20;99.90
51884;DHT22;37915;53.254;6.598;2022-08-11T00:26:38;17.20;99.90
51884;DHT22;37915;53.254;6.598;2022-08-11T00:29:10;17.20;99.90
51884;DHT22;37915;53.254;6.598;2022-08-11T00:31:36;17.20;99.90
51884;DHT22;37915;53.254;6.598;2022-08-11T00:34:02;17.10;99.90
51884;DHT22;37915;53.254;6.598;2022-08-11T00:36:41;17.10;99.90
51884;DHT22;37915;53.254;6.598;2022-08-11T00:39:07;17.10;99.90
51884;DHT22;37915;53.254;6.598;2022-08-11T00:44:06;17.00;99.90
51884;DHT22;37915;53.254;6.598;2022-08-11T00:52:16;17.00;99.90
51884;DHT22;37915;53.254;6.598;2022-08-11T00:54:54;17.00;99.90
51884;DHT22;37915;53.254;6.598;2022-08-11T01:13:13;17.00;99.90
51884;DHT22;37915;53.254;6.598;2022-08-11T01:18:46;16.90;99.90
51884;DHT22;37915;53.254;6.598;2022-08-11T01:31:47;16.90;99.90
51884;DHT22;37915;53.254;6.598;2022-08-11T01:42:01;16.80;99.90
51884;DHT22;37915;53.254;6.598;2022-08-11T01:55:31;16.50;99.90
51884;DHT22;37915;53.254;6.598;2022-08-11T01:58:06;16.50;99.90
51884;DHT22;37915;53.254;6.598;2022-08-11T02:00:34;16.50;99.90
51884;DHT22;37915;53.254;6.598;2022-08-11T02:03:13;16.50;99.90
51884;DHT22;37915;53.254;6.598;2022-08-11T02:08:46;16.30;99.90
51884;DHT22;37915;53.254;6.598;2022-08-11T02:11:17;16.30;99.90
51884;DHT22;37915;53.254;6.598;2022-08-11T02:22:12;16.10;99.90
51884;DHT22;37915;53.254;6.598;2022-08-11T02:27:28;16.10;99.90
51884;DHT22;37915;53.254;6.598;2022-08-11T02:30:03;16.10;99.90
51884;DHT22;37915;53.254;6.598;2022-08-11T02:48:38;15.90;99.90
51884;DHT22;37915;53.254;6.598;2022-08-11T02:51:26;15.90;99.90
51884;DHT22;37915;53.254;6.598;2022-08-11T02:56:41;15.90;99.90
51884;DHT22;37915;53.254;6.598;2022-08-11T03:05:04;15.90;99.90
51884;DHT22;37915;53.254;6.598;2022-08-11T03:13:18;15.90;99.90
51884;DHT22;37915;53.254;6.598;2022-08-11T03:27:08;15.80;99.90
51884;DHT22;37915;53.254;6.598;2022-08-11T03:32:27;15.80;99.90
51884;DHT22;37915;53.254;6.598;2022-08-11T03:34:55;15.70;99.90
51884;DHT22;37915;53.254;6.598;2022-08-11T03:37:26;15.70;99.90
51884;DHT22;37915;53.254;6.598;2022-08-11T03:43:05;15.60;99.90
51884;DHT22;37915;53.254;6.598;2022-08-11T03:45:36;15.60;99.90
51884;DHT22;37915;53.254;6.598;2022-08-11T03:48:26;15.60;99.90
51884;DHT22;37915;53.254;6.598;2022-08-11T03:51:02;15.60;99.90
51884;DHT22;37915;53.254;6.598;2022-08-11T03:53:47;15.60;99.90
51884;DHT22;37915;53.254;6.598;2022-08-11T03:56:22;15.60;99.90
51884;DHT22;37915;53.254;6.598;2022-08-11T04:14:46;15.50;99.90
51884;DHT22;37915;53.254;6.598;2022-08-11T04:30:34;15.60;99.90
51884;DHT22;37915;53.254;6.598;2022-08-11T04:38:33;15.70;99.90
51884;DHT22;37915;53.254;6.598;2022-08-11T04:57:52;15.80;99.90
51884;DHT22;37915;53.254;6.598;2022-08-11T05:03:45;15.90;99.90
51884;DHT22;37915;53.254;6.598;2022-08-11T05:11:27;15.90;99.90
51884;DHT22;37915;53.254;6.598;2022-08-11T05:14:18;15.90;99.90
51884;DHT22;37915;53.254;6.598;2022-08-11T05:17:08;15.90;99.90
51884;DHT22;37915;53.254;6.598;2022-08-11T05:19:53;15.90;99.90
51884;DHT22;37915;53.254;6.598;2022-08-11T05:22:37;16.00;99.90
51884;DHT22;37915;53.254;6.598;2022-08-11T05:25:26;16.10;99.90
51884;DHT22;37915;53.254;6.598;2022-08-11T05:28:18;16.10;99.90
51884;DHT22;37915;53.254;6.598;2022-08-11T05:31:13;16.10;99.90
51884;DHT22;37915;53.254;6.598;2022-08-11T05:34:00;16.20;99.90
51884;DHT22;37915;53.254;6.598;2022-08-11T05:39:32;16.20;99.90
51884;DHT22;37915;53.254;6.598;2022-08-11T05:42:15;16.30;99.90
51884;DHT22;37915;53.254;6.598;2022-08-11T05:45:02;16.40;99.90
51884;DHT22;37915;53.254;6.598;2022-08-11T05:47:48;16.40;99.90
51884;DHT22;37915;53.254;6.598;2022-08-11T05:50:32;16.50;99.90
51884;DHT22;37915;53.254;6.598;2022-08-11T05:53:17;16.60;99.90
51884;DHT22;37915;53.254;6.598;2022-08-11T05:56:05;16.60;99.90
51884;DHT22;37915;53.254;6.598;2022-08-11T05:58:47;16.80;99.90
51884;DHT22;37915;53.254;6.598;2022-08-11T06:01:19;16.90;99.90
51884;DHT22;37915;53.254;6.598;2022-08-11T06:03:47;17.00;99.90
51884;DHT22;37915;53.254;6.598;2022-08-11T06:06:32;17.10;99.90
51884;DHT22;37915;53.254;6.598;2022-08-11T06:08:58;17.20;99.90
51884;DHT22;37915;53.254;6.598;2022-08-11T06:11:25;17.30;99.90
51884;DHT22;37915;53.254;6.598;2022-08-11T06:13:51;17.40;99.90
51884;DHT22;37915;53.254;6.598;2022-08-11T06:16:24;17.50;99.90
51884;DHT22;37915;53.254;6.598;2022-08-11T06:18:52;17.60;99.90
51884;DHT22;37915;53.254;6.598;2022-08-11T06:21:18;17.70;99.90
51884;DHT22;37915;53.254;6.598;2022-08-11T06:23:45;17.90;99.90
51884;DHT22;37915;53.254;6.598;2022-08-11T06:26:12;18.00;99.90
51884;DHT22;37915;53.254;6.598;2022-08-11T06:28:38;18.10;99.90
51884;DHT22;37915;53.254;6.598;2022-08-11T06:31:16;18.20;99.90
51884;DHT22;37915;53.254;6.598;2022-08-11T06:34:26;18.40;99.90
51884;DHT22;37915;53.254;6.598;2022-08-11T06:36:37;18.50;99.90
51884;DHT22;37915;53.254;6.598;2022-08-11T06:41:35;18.70;99.90
51884;DHT22;37915;53.254;6.598;2022-08-11T06:44:13;18.80;99.90
51884;DHT22;37915;53.254;6.598;2022-08-11T06:46:41;19.00;99.90
51884;DHT22;37915;53.254;6.598;2022-08-11T06:49:08;19.10;99.90
51884;DHT22;37915;53.254;6.598;2022-08-11T06:51:53;19.20;99.90
51884;DHT22;37915;53.254;6.598;2022-08-11T06:54:21;19.30;99.90
51884;DHT22;37915;53.254;6.598;2022-08-11T06:56:47;19.40;99.90
51884;DHT22;37915;53.254;6.598;2022-08-11T06:59:32;19.50;99.90
51884;DHT22;37915;53.254;6.598;2022-08-11T07:02:19;19.60;99.90
51884;DHT22;37915;53.254;6.598;2022-08-11T07:04:47;19.70;99.90
51884;DHT22;37915;53.254;6.598;2022-08-11T07:07:37;19.80;99.90
51884;DHT22;37915;53.254;6.598;2022-08-11T07:13:28;20.00;99.90
51884;DHT22;37915;53.254;6.598;2022-08-11T07:16:14;20.00;99.90
51884;DHT22;37915;53.254;6.598;2022-08-11T07:18:41;20.20;99.90
51884;DHT22;37915;53.254;6.598;2022-08-11T07:21:27;20.30;99.90
51884;DHT22;37915;53.254;6.598;2022-08-11T07:24:25;20.40;99.90
51884;DHT22;37915;53.254;6.598;2022-08-11T07:27:14;20.50;99.90
51884;DHT22;37915;53.254;6.598;2022-08-11T07:30:03;20.70;99.90
51884;DHT22;37915;53.254;6.598;2022-08-11T07:32:30;20.80;99.90
51884;DHT22;37915;53.254;6.598;2022-08-11T07:34:58;20.90;99.90
51884;DHT22;37915;53.254;6.598;2022-08-11T07:37:28;21.00;99.90
51884;DHT22;37915;53.254;6.598;2022-08-11T07:39:55;21.20;99.90
51884;DHT22;37915;53.254;6.598;2022-08-11T07:42:26;21.30;99.90
51884;DHT22;37915;53.254;6.598;2022-08-11T07:44:52;21.40;99.90
51884;DHT22;37915;53.254;6.598;2022-08-11T07:47:38;21.60;99.90
51884;DHT22;37915;53.254;6.598;2022-08-11T07:50:23;21.80;99.90
51884;DHT22;37915;53.254;6.598;2022-08-11T07:53:07;22.00;99.90
51884;DHT22;37915;53.254;6.598;2022-08-11T07:55:33;22.20;99.90
51884;DHT22;37915;53.254;6.598;2022-08-11T07:57:59;22.40;99.90
51884;DHT22;37915;53.254;6.598;2022-08-11T08:00:45;22.50;99.90
51884;DHT22;37915;53.254;6.598;2022-08-11T08:03:30;21.90;99.90
51884;DHT22;37915;53.254;6.598;2022-08-11T08:06:15;22.80;99.90
51884;DHT22;37915;53.254;6.598;2022-08-11T08:08:59;23.00;99.90
51884;DHT22;37915;53.254;6.598;2022-08-11T08:11:43;23.10;99.90
51884;DHT22;37915;53.254;6.598;2022-08-11T08:14:29;23.30;99.90
51884;DHT22;37915;53.254;6.598;2022-08-11T08:17:14;23.50;99.90
51884;DHT22;37915;53.254;6.598;2022-08-11T08:19:58;23.70;99.90
51884;DHT22;37915;53.254;6.598;2022-08-11T08:22:24;23.90;99.90
51884;DHT22;37915;53.254;6.598;2022-08-11T08:24:49;24.00;99.90
51884;DHT22;37915;53.254;6.598;2022-08-11T08:27:15;24.00;99.90
51884;DHT22;37915;53.254;6.598;2022-08-11T08:29:42;24.10;99.90
51884;DHT22;37915;53.254;6.598;2022-08-11T08:32:26;24.20;99.90
51884;DHT22;37915;53.254;6.598;2022-08-11T08:34:53;24.40;99.90
51884;DHT22;37915;53.254;6.598;2022-08-11T08:37:20;24.60;99.90
51884;DHT22;37915;53.254;6.598;2022-08-11T08:39:48;24.70;99.90
51884;DHT22;37915;53.254;6.598;2022-08-11T08:42:16;24.80;99.90
51884;DHT22;37915;53.254;6.598;2022-08-11T08:44:46;24.90;99.90
51884;DHT22;37915;53.254;6.598;2022-08-11T08:47:14;25.00;99.90
51884;DHT22;37915;53.254;6.598;2022-08-11T08:49:45;25.10;99.90
51884;DHT22;37915;53.254;6.598;2022-08-11T08:52:14;25.30;99.90
51884;DHT22;37915;53.254;6.598;2022-08-11T08:54:41;25.40;99.90
51884;DHT22;37915;53.254;6.598;2022-08-11T08:57:08;25.60;99.90
51884;DHT22;37915;53.254;6.598;2022-08-11T08:59:39;25.90;99.90
51884;DHT22;37915;53.254;6.598;2022-08-11T09:02:05;26.10;99.90
51884;DHT22;37915;53.254;6.598;2022-08-11T09:04:31;26.30;99.90
51884;DHT22;37915;53.254;6.598;2022-08-11T09:07:02;26.50;99.90
51884;DHT22;37915;53.254;6.598;2022-08-11T09:09:31;26.70;99.90
51884;DHT22;37915;53.254;6.598;2022-08-11T09:11:57;26.90;99.90
51884;DHT22;37915;53.254;6.598;2022-08-11T09:14:27;26.90;99.90
51884;DHT22;37915;53.254;6.598;2022-08-11T09:17:19;27.00;99.90
51884;DHT22;37915;53.254;6.598;2022-08-11T09:19:45;27.30;99.90
51884;DHT22;37915;53.254;6.598;2022-08-11T09:22:10;27.50;99.90
51884;DHT22;37915;53.254;6.598;2022-08-11T09:24:55;27.50;99.90
51884;DHT22;37915;53.254;6.598;2022-08-11T09:27:39;27.70;99.90
51884;DHT22;37915;53.254;6.598;2022-08-11T09:30:06;27.90;99.90
51884;DHT22;37915;53.254;6.598;2022-08-11T09:32:32;28.00;99.90
51884;DHT22;37915;53.254;6.598;2022-08-11T09:34:58;28.10;99.90
51884;DHT22;37915;53.254;6.598;2022-08-11T09:37:26;28.20;99.90
51884;DHT22;37915;53.254;6.598;2022-08-11T09:40:11;28.50;99.90
51884;DHT22;37915;53.254;6.598;2022-08-11T09:42:56;28.60;99.90
51884;DHT22;37915;53.254;6.598;2022-08-11T09:45:44;28.60;99.90
51884;DHT22;37915;53.254;6.598;2022-08-11T09:48:19;28.60;99.90
51884;DHT22;37915;53.254;6.598;2022-08-11T09:50:46;28.90;99.90
51884;DHT22;37915;53.254;6.598;2022-08-11T09:53:13;29.00;97.40
51884;DHT22;37915;53.254;6.598;2022-08-11T09:55:39;29.30;98.20
51884;DHT22;37915;53.254;6.598;2022-08-11T09:58:05;29.50;97.50
51884;DHT22;37915;53.254;6.598;2022-08-11T10:00:47;29.70;98.00
51884;DHT22;37915;53.254;6.598;2022-08-11T10:03:17;29.80;93.50
51884;DHT22;37915;53.254;6.598;2022-08-11T10:05:44;29.80;93.70
51884;DHT22;37915;53.254;6.598;2022-08-11T10:08:29;29.70;91.20
51884;DHT22;37915;53.254;6.598;2022-08-11T10:10:57;29.70;91.20
51884;DHT22;37915;53.254;6.598;2022-08-11T10:13:25;29.70;92.60
51884;DHT22;37915;53.254;6.598;2022-08-11T10:15:53;29.80;92.00
51884;DHT22;37915;53.254;6.598;2022-08-11T10:18:28;30.00;91.10
51884;DHT22;37915;53.254;6.598;2022-08-11T10:23:47;29.90;89.70
51884;DHT22;37915;53.254;6.598;2022-08-11T10:26:31;29.90;90.60
51884;DHT22;37915;53.254;6.598;2022-08-11T10:29:16;30.10;90.00
51884;DHT22;37915;53.254;6.598;2022-08-11T10:32:00;30.30;90.60
51884;DHT22;37915;53.254;6.598;2022-08-11T10:34:47;30.50;88.80
51884;DHT22;37915;53.254;6.598;2022-08-11T10:37:13;30.60;91.00
51884;DHT22;37915;53.254;6.598;2022-08-11T10:39:39;30.70;86.60
51884;DHT22;37915;53.254;6.598;2022-08-11T10:42:05;30.80;90.10
51884;DHT22;37915;53.254;6.598;2022-08-11T10:44:50;30.90;88.10
51884;DHT22;37915;53.254;6.598;2022-08-11T10:47:16;31.10;87.40
51884;DHT22;37915;53.254;6.598;2022-08-11T10:52:48;31.10;86.10
51884;DHT22;37915;53.254;6.598;2022-08-11T10:55:36;31.20;83.90
51884;DHT22;37915;53.254;6.598;2022-08-11T10:58:20;31.10;81.40
51884;DHT22;37915;53.254;6.598;2022-08-11T11:01:05;31.10;85.20
51884;DHT22;37915;53.254;6.598;2022-08-11T11:03:31;30.90;81.60
51884;DHT22;37915;53.254;6.598;2022-08-11T11:08:51;31.00;82.40
51884;DHT22;37915;53.254;6.598;2022-08-11T11:11:17;31.10;81.80
51884;DHT22;37915;53.254;6.598;2022-08-11T11:13:46;31.20;80.20
51884;DHT22;37915;53.254;6.598;2022-08-11T11:16:32;31.20;81.70
51884;DHT22;37915;53.254;6.598;2022-08-11T11:19:14;31.20;78.90
51884;DHT22;37915;53.254;6.598;2022-08-11T11:21:43;31.20;79.60
51884;DHT22;37915;53.254;6.598;2022-08-11T11:26:40;31.30;78.60
51884;DHT22;37915;53.254;6.598;2022-08-11T11:37:03;31.20;81.00
51884;DHT22;37915;53.254;6.598;2022-08-11T11:39:29;31.30;79.70
51884;DHT22;37915;53.254;6.598;2022-08-11T11:41:57;31.30;79.60
51884;DHT22;37915;53.254;6.598;2022-08-11T11:44:23;31.30;80.50
51884;DHT22;37915;53.254;6.598;2022-08-11T11:46:49;31.30;76.50
51884;DHT22;37915;53.254;6.598;2022-08-11T11:49:16;31.30;76.30
51884;DHT22;37915;53.254;6.598;2022-08-11T11:51:46;31.20;79.10
51884;DHT22;37915;53.254;6.598;2022-08-11T11:54:15;31.20;77.30
51884;DHT22;37915;53.254;6.598;2022-08-11T11:56:41;31.20;78.20
51884;DHT22;37915;53.254;6.598;2022-08-11T11:59:07;31.20;77.20
51884;DHT22;37915;53.254;6.598;2022-08-11T12:01:52;31.20;75.90
51884;DHT22;37915;53.254;6.598;2022-08-11T12:04:18;31.20;75.90
51884;DHT22;37915;53.254;6.598;2022-08-11T12:06:44;31.30;76.10
51884;DHT22;37915;53.254;6.598;2022-08-11T12:09:11;31.30;78.20
51884;DHT22;37915;53.254;6.598;2022-08-11T12:11:40;31.30;76.40
51884;DHT22;37915;53.254;6.598;2022-08-11T12:14:24;31.40;77.00
51884;DHT22;37915;53.254;6.598;2022-08-11T12:16:52;31.50;75.50
51884;DHT22;37915;53.254;6.598;2022-08-11T12:19:22;31.50;75.70
51884;DHT22;37915;53.254;6.598;2022-08-11T12:21:47;31.60;75.90
51884;DHT22;37915;53.254;6.598;2022-08-11T12:24:33;31.70;74.30
51884;DHT22;37915;53.254;6.598;2022-08-11T12:27:17;31.80;76.50
51884;DHT22;37915;53.254;6.598;2022-08-11T12:29:47;31.90;75.40
51884;DHT22;37915;53.254;6.598;2022-08-11T12:32:13;32.00;73.70
51884;DHT22;37915;53.254;6.598;2022-08-11T12:34:39;32.00;74.40
51884;DHT22;37915;53.254;6.598;2022-08-11T12:37:04;32.00;74.80
51884;DHT22;37915;53.254;6.598;2022-08-11T12:39:43;32.10;75.10
51884;DHT22;37915;53.254;6.598;2022-08-11T12:42:27;32.20;73.00
51884;DHT22;37915;53.254;6.598;2022-08-11T12:45:14;32.20;75.00
51884;DHT22;37915;53.254;6.598;2022-08-11T12:47:52;32.20;72.40
51884;DHT22;37915;53.254;6.598;2022-08-11T12:50:36;32.40;75.30
51884;DHT22;37915;53.254;6.598;2022-08-11T12:53:22;32.60;74.20
51884;DHT22;37915;53.254;6.598;2022-08-11T12:55:47;32.60;73.50
51884;DHT22;37915;53.254;6.598;2022-08-11T12:58:32;32.60;72.20
51884;DHT22;37915;53.254;6.598;2022-08-11T13:00:58;32.50;71.40
51884;DHT22;37915;53.254;6.598;2022-08-11T13:03:42;32.50;72.80
51884;DHT22;37915;53.254;6.598;2022-08-11T13:06:27;32.60;74.30
51884;DHT22;37915;53.254;6.598;2022-08-11T13:08:53;32.80;73.50
51884;DHT22;37915;53.254;6.598;2022-08-11T13:11:22;32.90;72.20
51884;DHT22;37915;53.254;6.598;2022-08-11T13:14:06;32.90;72.50
51884;DHT22;37915;53.254;6.598;2022-08-11T13:16:33;32.90;71.30
51884;DHT22;37915;53.254;6.598;2022-08-11T13:19:35;33.10;71.30
51884;DHT22;37915;53.254;6.598;2022-08-11T13:22:00;33.00;70.20
51884;DHT22;37915;53.254;6.598;2022-08-11T13:24:29;33.00;71.20
51884;DHT22;37915;53.254;6.598;2022-08-11T13:26:58;33.10;70.20
51884;DHT22;37915;53.254;6.598;2022-08-11T13:29:24;33.10;68.70
51884;DHT22;37915;53.254;6.598;2022-08-11T13:31:51;33.10;69.70
51884;DHT22;37915;53.254;6.598;2022-08-11T13:34:18;33.20;68.50
51884;DHT22;37915;53.254;6.598;2022-08-11T13:36:44;33.10;67.40
51884;DHT22;37915;53.254;6.598;2022-08-11T13:39:10;32.90;67.30
51884;DHT22;37915;53.254;6.598;2022-08-11T13:41:36;32.90;68.20
51884;DHT22;37915;53.254;6.598;2022-08-11T13:44:04;33.10;68.20
51884;DHT22;37915;53.254;6.598;2022-08-11T13:46:30;33.30;67.80
51884;DHT22;37915;53.254;6.598;2022-08-11T13:48:56;33.50;67.40
51884;DHT22;37915;53.254;6.598;2022-08-11T13:51:23;33.50;67.10
51884;DHT22;37915;53.254;6.598;2022-08-11T13:54:04;33.50;67.40
51884;DHT22;37915;53.254;6.598;2022-08-11T13:56:31;33.60;69.30
51884;DHT22;37915;53.254;6.598;2022-08-11T13:58:57;33.70;69.00
51884;DHT22;37915;53.254;6.598;2022-08-11T14:01:25;33.80;67.40
51884;DHT22;37915;53.254;6.598;2022-08-11T14:03:50;33.80;66.50
51884;DHT22;37915;53.254;6.598;2022-08-11T14:06:17;33.60;67.10
51884;DHT22;37915;53.254;6.598;2022-08-11T14:08:43;33.70;66.40
51884;DHT22;37915;53.254;6.598;2022-08-11T14:11:10;33.80;67.00
51884;DHT22;37915;53.254;6.598;2022-08-11T14:13:54;33.90;66.10
51884;DHT22;37915;53.254;6.598;2022-08-11T14:16:28;33.70;66.90
51884;DHT22;37915;53.254;6.598;2022-08-11T14:18:56;33.60;68.30
51884;DHT22;37915;53.254;6.598;2022-08-11T14:21:22;33.70;69.40
51884;DHT22;37915;53.254;6.598;2022-08-11T14:24:07;33.80;70.30
51884;DHT22;37915;53.254;6.598;2022-08-11T14:26:36;33.90;70.50
51884;DHT22;37915;53.254;6.598;2022-08-11T14:29:07;33.80;70.70
51884;DHT22;37915;53.254;6.598;2022-08-11T14:31:38;33.80;71.00
51884;DHT22;37915;53.254;6.598;2022-08-11T14:34:05;33.90;71.50
51884;DHT22;37915;53.254;6.598;2022-08-11T14:36:36;34.00;69.80
51884;DHT22;37915;53.254;6.598;2022-08-11T14:39:04;34.00;69.10
51884;DHT22;37915;53.254;6.598;2022-08-11T14:41:31;34.00;69.70
51884;DHT22;37915;53.254;6.598;2022-08-11T14:44:15;34.10;69.40
51884;DHT22;37915;53.254;6.598;2022-08-11T14:47:00;34.00;69.20
51884;DHT22;37915;53.254;6.598;2022-08-11T14:49:36;33.90;69.60
51884;DHT22;37915;53.254;6.598;2022-08-11T14:52:03;33.90;68.20
51884;DHT22;37915;53.254;6.598;2022-08-11T14:54:31;33.80;69.20
51884;DHT22;37915;53.254;6.598;2022-08-11T14:57:16;33.70;67.30
51884;DHT22;37915;53.254;6.598;2022-08-11T14:59:42;33.70;67.10
51884;DHT22;37915;53.254;6.598;2022-08-11T15:02:08;33.60;67.70
51884;DHT22;37915;53.254;6.598;2022-08-11T15:04:52;33.60;68.90
51884;DHT22;37915;53.254;6.598;2022-08-11T15:07:20;33.70;68.50
51884;DHT22;37915;53.254;6.598;2022-08-11T15:09:54;33.60;68.70
51884;DHT22;37915;53.254;6.598;2022-08-11T15:12:20;33.40;68.30
51884;DHT22;37915;53.254;6.598;2022-08-11T15:14:46;33.40;69.00
51884;DHT22;37915;53.254;6.598;2022-08-11T15:17:32;33.30;68.50
51884;DHT22;37915;53.254;6.598;2022-08-11T15:20:03;33.30;69.20
51884;DHT22;37915;53.254;6.598;2022-08-11T15:22:48;33.30;68.40
51884;DHT22;37915;53.254;6.598;2022-08-11T15:25:33;33.30;69.80
51884;DHT22;37915;53.254;6.598;2022-08-11T15:27:59;33.10;69.10
51884;DHT22;37915;53.254;6.598;2022-08-11T15:30:44;33.00;70.50
51884;DHT22;37915;53.254;6.598;2022-08-11T15:33:29;32.80;70.10
51884;DHT22;37915;53.254;6.598;2022-08-11T15:36:14;32.80;70.00
51884;DHT22;37915;53.254;6.598;2022-08-11T15:38:59;32.60;71.00
51884;DHT22;37915;53.254;6.598;2022-08-11T15:41:35;32.50;71.40
51884;DHT22;37915;53.254;6.598;2022-08-11T15:44:22;32.40;71.10
51884;DHT22;37915;53.254;6.598;2022-08-11T15:47:08;32.40;70.90
51884;DHT22;37915;53.254;6.598;2022-08-11T15:49:36;32.10;70.20
51884;DHT22;37915;53.254;6.598;2022-08-11T15:52:12;32.10;71.40
51884;DHT22;37915;53.254;6.598;2022-08-11T15:54:40;32.10;71.00
51884;DHT22;37915;53.254;6.598;2022-08-11T15:57:07;32.00;71.20
51884;DHT22;37915;53.254;6.598;2022-08-11T15:59:35;31.90;70.80
51884;DHT22;37915;53.254;6.598;2022-08-11T16:02:20;31.90;71.40
51884;DHT22;37915;53.254;6.598;2022-08-11T16:05:05;31.90;71.60
51884;DHT22;37915;53.254;6.598;2022-08-11T16:07:32;31.80;70.60
51884;DHT22;37915;53.254;6.598;2022-08-11T16:10:04;31.70;71.90
51884;DHT22;37915;53.254;6.598;2022-08-11T16:12:36;31.50;72.10
51884;DHT22;37915;53.254;6.598;2022-08-11T16:15:03;31.40;72.50
51884;DHT22;37915;53.254;6.598;2022-08-11T16:17:53;31.30;72.60
51884;DHT22;37915;53.254;6.598;2022-08-11T16:20:20;31.30;71.80
51884;DHT22;37915;53.254;6.598;2022-08-11T16:22:47;31.20;71.70
51884;DHT22;37915;53.254;6.598;2022-08-11T16:25:16;31.20;72.00
51884;DHT22;37915;53.254;6.598;2022-08-11T16:27:44;31.10;72.30
51884;DHT22;37915;53.254;6.598;2022-08-11T16:30:11;31.00;71.80
51884;DHT22;37915;53.254;6.598;2022-08-11T16:32:40;30.80;71.70
51884;DHT22;37915;53.254;6.598;2022-08-11T16:35:16;30.80;72.80
51884;DHT22;37915;53.254;6.598;2022-08-11T16:38:01;30.80;73.40
51884;DHT22;37915;53.254;6.598;2022-08-11T16:40:46;30.80;74.00
51884;DHT22;37915;53.254;6.598;2022-08-11T16:43:14;30.60;74.50
51884;DHT22;37915;53.254;6.598;2022-08-11T16:45:59;30.50;74.80
51884;DHT22;37915;53.254;6.598;2022-08-11T16:49:15;30.40;75.00
51884;DHT22;37915;53.254;6.598;2022-08-11T16:51:42;30.40;74.80
51884;DHT22;37915;53.254;6.598;2022-08-11T16:54:08;30.30;76.00
51884;DHT22;37915;53.254;6.598;2022-08-11T16:56:38;30.20;75.40
51884;DHT22;37915;53.254;6.598;2022-08-11T16:59:06;30.20;75.20
51884;DHT22;37915;53.254;6.598;2022-08-11T17:01:40;30.00;76.10
51884;DHT22;37915;53.254;6.598;2022-08-11T17:04:07;30.00;76.20
51884;DHT22;37915;53.254;6.598;2022-08-11T17:06:52;29.80;77.20
51884;DHT22;37915;53.254;6.598;2022-08-11T17:09:37;29.70;77.80
51884;DHT22;37915;53.254;6.598;2022-08-11T17:12:21;29.50;77.70
51884;DHT22;37915;53.254;6.598;2022-08-11T17:15:08;29.40;78.00
51884;DHT22;37915;53.254;6.598;2022-08-11T17:17:55;29.40;78.40
51884;DHT22;37915;53.254;6.598;2022-08-11T17:20:22;29.30;79.20
51884;DHT22;37915;53.254;6.598;2022-08-11T17:22:48;29.20;79.90
51884;DHT22;37915;53.254;6.598;2022-08-11T17:25:33;29.10;80.10
51884;DHT22;37915;53.254;6.598;2022-08-11T17:27:59;28.90;80.90
51884;DHT22;37915;53.254;6.598;2022-08-11T17:30:25;28.80;80.10
51884;DHT22;37915;53.254;6.598;2022-08-11T17:33:11;28.70;80.80
51884;DHT22;37915;53.254;6.598;2022-08-11T17:35:56;28.60;82.60
51884;DHT22;37915;53.254;6.598;2022-08-11T17:38:23;28.40;82.30
51884;DHT22;37915;53.254;6.598;2022-08-11T17:40:53;28.30;82.50
51884;DHT22;37915;53.254;6.598;2022-08-11T17:43:37;28.10;82.90
51884;DHT22;37915;53.254;6.598;2022-08-11T17:46:23;28.00;83.00
51884;DHT22;37915;53.254;6.598;2022-08-11T17:49:08;27.90;82.90
51884;DHT22;37915;53.254;6.598;2022-08-11T17:51:36;28.00;82.70
51884;DHT22;37915;53.254;6.598;2022-08-11T17:54:21;28.20;82.80
51884;DHT22;37915;53.254;6.598;2022-08-11T17:57:05;28.10;82.60
51884;DHT22;37915;53.254;6.598;2022-08-11T17:59:50;27.80;82.40
51884;DHT22;37915;53.254;6.598;2022-08-11T18:02:17;27.50;84.00
51884;DHT22;37915;53.254;6.598;2022-08-11T18:05:02;27.30;83.60
51884;DHT22;37915;53.254;6.598;2022-08-11T18:07:31;27.10;84.10
51884;DHT22;37915;53.254;6.598;2022-08-11T18:10:16;26.90;84.60
51884;DHT22;37915;53.254;6.598;2022-08-11T18:13:01;26.70;86.10
51884;DHT22;37915;53.254;6.598;2022-08-11T18:15:45;26.50;85.90
51884;DHT22;37915;53.254;6.598;2022-08-11T18:18:29;26.30;86.10
51884;DHT22;37915;53.254;6.598;2022-08-11T18:21:14;26.10;86.30
51884;DHT22;37915;53.254;6.598;2022-08-11T18:24:02;26.00;87.50
51884;DHT22;37915;53.254;6.598;2022-08-11T18:26:46;25.70;88.10
51884;DHT22;37915;53.254;6.598;2022-08-11T18:29:31;25.60;88.70
51884;DHT22;37915;53.254;6.598;2022-08-11T18:32:16;25.50;90.10
51884;DHT22;37915;53.254;6.598;2022-08-11T18:35:01;25.30;89.90
51884;DHT22;37915;53.254;6.598;2022-08-11T18:37:46;25.10;90.90
51884;DHT22;37915;53.254;6.598;2022-08-11T18:40:31;24.90;91.30
51884;DHT22;37915;53.254;6.598;2022-08-11T18:43:18;24.80;91.20
51884;DHT22;37915;53.254;6.598;2022-08-11T18:46:06;24.60;91.80
51884;DHT22;37915;53.254;6.598;2022-08-11T18:48:52;24.50;92.30
51884;DHT22;37915;53.254;6.598;2022-08-11T18:51:38;24.40;92.90
51884;DHT22;37915;53.254;6.598;2022-08-11T18:54:23;24.20;92.80
51884;DHT22;37915;53.254;6.598;2022-08-11T18:57:08;24.20;94.10
51884;DHT22;37915;53.254;6.598;2022-08-11T18:59:53;24.00;93.90
51884;DHT22;37915;53.254;6.598;2022-08-11T19:02:39;23.90;94.30
51884;DHT22;37915;53.254;6.598;2022-08-11T19:05:24;23.80;95.00
51884;DHT22;37915;53.254;6.598;2022-08-11T19:08:13;23.60;95.90
51884;DHT22;37915;53.254;6.598;2022-08-11T19:10:58;23.50;96.40
51884;DHT22;37915;53.254;6.598;2022-08-11T19:13:42;23.40;96.00
51884;DHT22;37915;53.254;6.598;2022-08-11T19:16:28;23.30;96.50
51884;DHT22;37915;53.254;6.598;2022-08-11T19:19:13;23.30;97.00
51884;DHT22;37915;53.254;6.598;2022-08-11T19:21:57;23.30;97.40
51884;DHT22;37915;53.254;6.598;2022-08-11T19:24:43;23.20;97.50
51884;DHT22;37915;53.254;6.598;2022-08-11T19:27:27;23.20;98.20
51884;DHT22;37915;53.254;6.598;2022-08-11T19:30:12;23.10;98.60
51884;DHT22;37915;53.254;6.598;2022-08-11T19:32:57;23.00;98.90
51884;DHT22;37915;53.254;6.598;2022-08-11T19:35:42;22.90;99.30
51884;DHT22;37915;53.254;6.598;2022-08-11T19:38:27;22.80;99.90
51884;DHT22;37915;53.254;6.598;2022-08-11T19:41:12;22.70;99.90
51884;DHT22;37915;53.254;6.598;2022-08-11T19:43:57;22.70;99.90
51884;DHT22;37915;53.254;6.598;2022-08-11T19:46:42;22.60;99.90
51884;DHT22;37915;53.254;6.598;2022-08-11T19:49:27;22.50;99.90